sensor_id;sensor_type;location;lat;lon;timestamp;P1;durP1;ratioP1;P2;durP2;ratioP2
71806;SDS011;59655;42.590;23.364;2023-03-11T00:00:15;3.25;;;1.98;;
71806;SDS011;59655;42.590;23.364;2023-03-11T00:02:46;3.53;;;1.33;;
71806;SDS011;59655;42.590;23.364;2023-03-11T00:05:16;3.53;;;2.00;;
71806;SDS011;59655;42.590;23.364;2023-03-11T00:10:17;4.07;;;2.17;;
71806;SDS011;59655;42.590;23.364;2023-03-11T00:12:53;3.47;;;1.73;;
71806;SDS011;59655;42.590;23.364;2023-03-11T00:15:20;3.22;;;1.70;;
71806;SDS011;59655;42.590;23.364;2023-03-11T00:17:48;3.22;;;1.98;;
71806;SDS011;59655;42.590;23.364;2023-03-11T00:20:23;4.53;;;2.28;;
71806;SDS011;59655;42.590;23.364;2023-03-11T00:22:50;5.38;;;4.30;;
71806;SDS011;59655;42.590;23.364;2023-03-11T00:25:15;5.35;;;3.90;;
71806;SDS011;59655;42.590;23.364;2023-03-11T00:27:41;4.75;;;4.00;;
71806;SDS011;59655;42.590;23.364;2023-03-11T00:30:08;4.43;;;3.40;;
71806;SDS011;59655;42.590;23.364;2023-03-11T00:32:34;4.38;;;3.20;;
71806;SDS011;59655;42.590;23.364;2023-03-11T00:35:01;5.38;;;2.95;;
71806;SDS011;59655;42.590;23.364;2023-03-11T00:37:27;4.30;;;3.05;;
71806;SDS011;59655;42.590;23.364;2023-03-11T00:39:54;4.45;;;3.70;;
71806;SDS011;59655;42.590;23.364;2023-03-11T00:42:19;4.85;;;3.67;;
71806;SDS011;59655;42.590;23.364;2023-03-11T00:44:45;3.05;;;2.00;;
71806;SDS011;59655;42.590;23.364;2023-03-11T00:47:12;1.67;;;0.70;;
71806;SDS011;59655;42.590;23.364;2023-03-11T00:49:39;1.25;;;0.80;;
71806;SDS011;59655;42.590;23.364;2023-03-11T00:52:05;3.25;;;0.68;;
71806;SDS011;59655;42.590;23.364;2023-03-11T00:54:32;0.82;;;0.60;;
71806;SDS011;59655;42.590;23.364;2023-03-11T00:56:57;1.67;;;0.93;;
71806;SDS011;59655;42.590;23.364;2023-03-11T00:59:23;1.70;;;0.80;;
71806;SDS011;59655;42.590;23.364;2023-03-11T01:01:48;0.85;;;0.60;;
71806;SDS011;59655;42.590;23.364;2023-03-11T01:04:14;2.85;;;0.90;;
71806;SDS011;59655;42.590;23.364;2023-03-11T01:06:39;1.63;;;0.82;;
71806;SDS011;59655;42.590;23.364;2023-03-11T01:09:05;6.88;;;2.53;;
71806;SDS011;59655;42.590;23.364;2023-03-11T01:11:30;7.38;;;2.75;;
71806;SDS011;59655;42.590;23.364;2023-03-11T01:13:56;5.55;;;3.70;;
71806;SDS011;59655;42.590;23.364;2023-03-11T01:16:21;3.60;;;2.67;;
71806;SDS011;59655;42.590;23.364;2023-03-11T01:18:48;4.30;;;3.83;;
71806;SDS011;59655;42.590;23.364;2023-03-11T01:21:14;2.15;;;1.42;;
71806;SDS011;59655;42.590;23.364;2023-03-11T01:23:40;1.00;;;0.60;;
71806;SDS011;59655;42.590;23.364;2023-03-11T01:26:06;2.08;;;1.20;;
71806;SDS011;59655;42.590;23.364;2023-03-11T01:28:31;2.70;;;1.50;;
71806;SDS011;59655;42.590;23.364;2023-03-11T01:30:57;2.10;;;1.20;;
71806;SDS011;59655;42.590;23.364;2023-03-11T01:33:22;2.42;;;0.70;;
71806;SDS011;59655;42.590;23.364;2023-03-11T01:35:48;1.70;;;0.90;;
71806;SDS011;59655;42.590;23.364;2023-03-11T01:38:14;1.27;;;0.70;;
71806;SDS011;59655;42.590;23.364;2023-03-11T01:40:44;0.60;;;0.50;;
71806;SDS011;59655;42.590;23.364;2023-03-11T01:46:26;1.83;;;0.70;;
71806;SDS011;59655;42.590;23.364;2023-03-11T01:49:02;1.58;;;0.70;;
71806;SDS011;59655;42.590;23.364;2023-03-11T01:51:31;0.98;;;0.65;;
71806;SDS011;59655;42.590;23.364;2023-03-11T01:54:00;0.90;;;0.77;;
71806;SDS011;59655;42.590;23.364;2023-03-11T01:56:30;1.30;;;1.00;;
71806;SDS011;59655;42.590;23.364;2023-03-11T01:58:57;1.38;;;0.90;;
71806;SDS011;59655;42.590;23.364;2023-03-11T02:01:23;1.33;;;0.60;;
71806;SDS011;59655;42.590;23.364;2023-03-11T02:03:49;1.20;;;0.98;;
71806;SDS011;59655;42.590;23.364;2023-03-11T02:06:16;2.20;;;1.20;;
71806;SDS011;59655;42.590;23.364;2023-03-11T02:08:44;1.75;;;1.20;;
71806;SDS011;59655;42.590;23.364;2023-03-11T02:11:14;2.15;;;0.95;;
71806;SDS011;59655;42.590;23.364;2023-03-11T02:13:50;4.35;;;2.55;;
71806;SDS011;59655;42.590;23.364;2023-03-11T02:16:19;3.60;;;2.60;;
71806;SDS011;59655;42.590;23.364;2023-03-11T02:18:44;3.78;;;2.50;;
71806;SDS011;59655;42.590;23.364;2023-03-11T02:21:20;4.38;;;3.55;;
71806;SDS011;59655;42.590;23.364;2023-03-11T02:23:51;4.95;;;4.35;;
71806;SDS011;59655;42.590;23.364;2023-03-11T02:26:24;4.18;;;3.45;;
71806;SDS011;59655;42.590;23.364;2023-03-11T02:28:53;4.70;;;3.50;;
71806;SDS011;59655;42.590;23.364;2023-03-11T02:31:20;5.53;;;4.00;;
71806;SDS011;59655;42.590;23.364;2023-03-11T02:33:46;4.05;;;3.63;;
71806;SDS011;59655;42.590;23.364;2023-03-11T02:36:32;6.18;;;3.63;;
71806;SDS011;59655;42.590;23.364;2023-03-11T02:39:00;3.63;;;2.72;;
71806;SDS011;59655;42.590;23.364;2023-03-11T02:41:26;3.03;;;1.60;;
71806;SDS011;59655;42.590;23.364;2023-03-11T02:43:52;3.15;;;2.33;;
71806;SDS011;59655;42.590;23.364;2023-03-11T02:46:19;5.90;;;4.65;;
71806;SDS011;59655;42.590;23.364;2023-03-11T02:48:45;6.82;;;5.47;;
71806;SDS011;59655;42.590;23.364;2023-03-11T02:51:12;6.57;;;5.88;;
71806;SDS011;59655;42.590;23.364;2023-03-11T02:53:44;6.65;;;5.45;;
71806;SDS011;59655;42.590;23.364;2023-03-11T02:56:12;7.25;;;6.13;;
71806;SDS011;59655;42.590;23.364;2023-03-11T02:58:39;7.68;;;6.13;;
71806;SDS011;59655;42.590;23.364;2023-03-11T03:01:04;5.63;;;5.00;;
71806;SDS011;59655;42.590;23.364;2023-03-11T03:03:30;5.22;;;4.13;;
71806;SDS011;59655;42.590;23.364;2023-03-11T03:05:55;9.15;;;4.88;;
71806;SDS011;59655;42.590;23.364;2023-03-11T03:08:21;4.72;;;3.17;;
71806;SDS011;59655;42.590;23.364;2023-03-11T03:10:46;2.92;;;2.08;;
71806;SDS011;59655;42.590;23.364;2023-03-11T03:13:12;3.10;;;1.90;;
71806;SDS011;59655;42.590;23.364;2023-03-11T03:15:37;2.35;;;1.35;;
71806;SDS011;59655;42.590;23.364;2023-03-11T03:18:02;3.00;;;1.40;;
71806;SDS011;59655;42.590;23.364;2023-03-11T03:20:28;1.48;;;1.00;;
71806;SDS011;59655;42.590;23.364;2023-03-11T03:22:54;1.90;;;1.20;;
71806;SDS011;59655;42.590;23.364;2023-03-11T03:25:19;2.50;;;1.27;;
71806;SDS011;59655;42.590;23.364;2023-03-11T03:27:45;3.08;;;1.30;;
71806;SDS011;59655;42.590;23.364;2023-03-11T03:30:10;1.55;;;0.90;;
71806;SDS011;59655;42.590;23.364;2023-03-11T03:32:36;2.00;;;1.20;;
71806;SDS011;59655;42.590;23.364;2023-03-11T03:35:02;1.00;;;0.60;;
71806;SDS011;59655;42.590;23.364;2023-03-11T03:37:30;2.08;;;0.60;;
71806;SDS011;59655;42.590;23.364;2023-03-11T03:39:57;3.50;;;0.77;;
71806;SDS011;59655;42.590;23.364;2023-03-11T03:42:23;4.85;;;1.80;;
71806;SDS011;59655;42.590;23.364;2023-03-11T03:44:49;0.73;;;0.50;;
71806;SDS011;59655;42.590;23.364;2023-03-11T03:47:16;0.45;;;0.30;;
71806;SDS011;59655;42.590;23.364;2023-03-11T03:49:42;1.15;;;0.30;;
71806;SDS011;59655;42.590;23.364;2023-03-11T03:52:08;0.88;;;0.28;;
71806;SDS011;59655;42.590;23.364;2023-03-11T03:54:34;0.40;;;0.30;;
71806;SDS011;59655;42.590;23.364;2023-03-11T03:57:00;0.30;;;0.30;;
71806;SDS011;59655;42.590;23.364;2023-03-11T03:59:26;0.50;;;0.40;;
71806;SDS011;59655;42.590;23.364;2023-03-11T04:01:51;1.27;;;0.50;;
71806;SDS011;59655;42.590;23.364;2023-03-11T04:04:17;0.43;;;0.22;;
71806;SDS011;59655;42.590;23.364;2023-03-11T04:06:42;0.47;;;0.40;;
71806;SDS011;59655;42.590;23.364;2023-03-11T04:09:08;0.82;;;0.50;;
71806;SDS011;59655;42.590;23.364;2023-03-11T04:11:35;1.50;;;0.70;;
71806;SDS011;59655;42.590;23.364;2023-03-11T04:14:01;2.53;;;1.25;;
71806;SDS011;59655;42.590;23.364;2023-03-11T04:16:27;2.35;;;0.70;;
71806;SDS011;59655;42.590;23.364;2023-03-11T04:18:53;2.05;;;0.80;;
71806;SDS011;59655;42.590;23.364;2023-03-11T04:21:18;2.58;;;0.70;;
71806;SDS011;59655;42.590;23.364;2023-03-11T04:23:44;3.20;;;0.63;;
71806;SDS011;59655;42.590;23.364;2023-03-11T04:26:09;1.90;;;1.05;;
71806;SDS011;59655;42.590;23.364;2023-03-11T04:28:34;3.55;;;1.30;;
71806;SDS011;59655;42.590;23.364;2023-03-11T04:31:00;2.03;;;0.70;;
71806;SDS011;59655;42.590;23.364;2023-03-11T04:33:25;1.48;;;0.68;;
71806;SDS011;59655;42.590;23.364;2023-03-11T04:35:51;0.90;;;0.40;;
71806;SDS011;59655;42.590;23.364;2023-03-11T04:38:16;1.52;;;0.60;;
71806;SDS011;59655;42.590;23.364;2023-03-11T04:40:41;3.10;;;0.80;;
71806;SDS011;59655;42.590;23.364;2023-03-11T04:43:07;1.15;;;0.40;;
71806;SDS011;59655;42.590;23.364;2023-03-11T04:45:32;1.85;;;1.00;;
71806;SDS011;59655;42.590;23.364;2023-03-11T04:47:58;1.35;;;0.70;;
71806;SDS011;59655;42.590;23.364;2023-03-11T04:50:23;2.33;;;0.85;;
71806;SDS011;59655;42.590;23.364;2023-03-11T04:52:49;4.00;;;1.20;;
71806;SDS011;59655;42.590;23.364;2023-03-11T04:55:14;1.85;;;0.93;;
71806;SDS011;59655;42.590;23.364;2023-03-11T04:57:40;1.95;;;0.90;;
71806;SDS011;59655;42.590;23.364;2023-03-11T05:00:08;1.67;;;0.80;;
71806;SDS011;59655;42.590;23.364;2023-03-11T05:02:36;2.00;;;0.80;;
71806;SDS011;59655;42.590;23.364;2023-03-11T05:05:03;1.38;;;0.60;;
71806;SDS011;59655;42.590;23.364;2023-03-11T05:07:29;0.95;;;0.47;;
71806;SDS011;59655;42.590;23.364;2023-03-11T05:09:54;2.50;;;1.17;;
71806;SDS011;59655;42.590;23.364;2023-03-11T05:12:20;1.00;;;0.60;;
71806;SDS011;59655;42.590;23.364;2023-03-11T05:14:45;1.65;;;0.60;;
71806;SDS011;59655;42.590;23.364;2023-03-11T05:17:11;2.17;;;0.60;;
71806;SDS011;59655;42.590;23.364;2023-03-11T05:19:37;4.32;;;1.50;;
71806;SDS011;59655;42.590;23.364;2023-03-11T05:22:03;2.38;;;0.52;;
71806;SDS011;59655;42.590;23.364;2023-03-11T05:24:30;0.82;;;0.50;;
71806;SDS011;59655;42.590;23.364;2023-03-11T05:26:55;2.38;;;1.10;;
71806;SDS011;59655;42.590;23.364;2023-03-11T05:29:21;4.65;;;2.22;;
71806;SDS011;59655;42.590;23.364;2023-03-11T05:31:48;3.53;;;1.50;;
71806;SDS011;59655;42.590;23.364;2023-03-11T05:34:14;2.67;;;0.90;;
71806;SDS011;59655;42.590;23.364;2023-03-11T05:36:40;2.83;;;1.00;;
71806;SDS011;59655;42.590;23.364;2023-03-11T05:39:06;2.10;;;0.70;;
71806;SDS011;59655;42.590;23.364;2023-03-11T05:41:31;0.45;;;0.40;;
71806;SDS011;59655;42.590;23.364;2023-03-11T05:43:57;1.80;;;0.60;;
71806;SDS011;59655;42.590;23.364;2023-03-11T05:46:22;2.03;;;0.85;;
71806;SDS011;59655;42.590;23.364;2023-03-11T05:48:47;1.30;;;0.70;;
71806;SDS011;59655;42.590;23.364;2023-03-11T05:51:13;3.15;;;1.20;;
71806;SDS011;59655;42.590;23.364;2023-03-11T05:53:42;3.95;;;1.85;;
71806;SDS011;59655;42.590;23.364;2023-03-11T05:56:15;1.73;;;0.80;;
71806;SDS011;59655;42.590;23.364;2023-03-11T05:58:42;1.30;;;0.68;;
71806;SDS011;59655;42.590;23.364;2023-03-11T06:01:08;3.10;;;1.10;;
71806;SDS011;59655;42.590;23.364;2023-03-11T06:03:35;3.55;;;1.38;;
71806;SDS011;59655;42.590;23.364;2023-03-11T06:06:00;2.90;;;1.30;;
71806;SDS011;59655;42.590;23.364;2023-03-11T06:08:26;1.38;;;0.80;;
71806;SDS011;59655;42.590;23.364;2023-03-11T06:10:51;3.13;;;1.10;;
71806;SDS011;59655;42.590;23.364;2023-03-11T06:13:17;1.77;;;1.00;;
71806;SDS011;59655;42.590;23.364;2023-03-11T06:15:44;1.65;;;0.90;;
71806;SDS011;59655;42.590;23.364;2023-03-11T06:18:10;1.42;;;0.63;;
71806;SDS011;59655;42.590;23.364;2023-03-11T06:20:35;8.38;;;4.05;;
71806;SDS011;59655;42.590;23.364;2023-03-11T06:23:02;2.15;;;0.47;;
71806;SDS011;59655;42.590;23.364;2023-03-11T06:25:27;0.73;;;0.30;;
71806;SDS011;59655;42.590;23.364;2023-03-11T06:27:52;2.47;;;1.60;;
71806;SDS011;59655;42.590;23.364;2023-03-11T06:30:18;2.03;;;0.70;;
71806;SDS011;59655;42.590;23.364;2023-03-11T06:32:44;0.75;;;0.40;;
71806;SDS011;59655;42.590;23.364;2023-03-11T06:35:11;1.83;;;1.30;;
71806;SDS011;59655;42.590;23.364;2023-03-11T06:37:38;2.10;;;1.20;;
71806;SDS011;59655;42.590;23.364;2023-03-11T06:40:04;1.25;;;0.80;;
71806;SDS011;59655;42.590;23.364;2023-03-11T06:42:32;1.73;;;0.98;;
71806;SDS011;59655;42.590;23.364;2023-03-11T06:44:58;4.85;;;1.70;;
71806;SDS011;59655;42.590;23.364;2023-03-11T06:47:26;2.30;;;1.23;;
71806;SDS011;59655;42.590;23.364;2023-03-11T06:49:51;2.17;;;1.00;;
71806;SDS011;59655;42.590;23.364;2023-03-11T06:52:23;1.50;;;1.00;;
71806;SDS011;59655;42.590;23.364;2023-03-11T06:54:49;2.33;;;0.98;;
71806;SDS011;59655;42.590;23.364;2023-03-11T06:57:15;1.70;;;1.15;;
71806;SDS011;59655;42.590;23.364;2023-03-11T06:59:46;3.42;;;1.23;;
71806;SDS011;59655;42.590;23.364;2023-03-11T07:02:12;3.58;;;1.30;;
71806;SDS011;59655;42.590;23.364;2023-03-11T07:04:38;1.92;;;1.42;;
71806;SDS011;59655;42.590;23.364;2023-03-11T07:07:04;1.65;;;0.70;;
71806;SDS011;59655;42.590;23.364;2023-03-11T07:09:30;1.90;;;1.30;;
71806;SDS011;59655;42.590;23.364;2023-03-11T07:11:59;2.97;;;1.25;;
71806;SDS011;59655;42.590;23.364;2023-03-11T07:14:24;1.10;;;0.80;;
71806;SDS011;59655;42.590;23.364;2023-03-11T07:16:50;1.08;;;0.68;;
71806;SDS011;59655;42.590;23.364;2023-03-11T07:19:15;1.70;;;0.90;;
71806;SDS011;59655;42.590;23.364;2023-03-11T07:21:42;3.25;;;2.70;;
71806;SDS011;59655;42.590;23.364;2023-03-11T07:24:09;3.00;;;2.47;;
71806;SDS011;59655;42.590;23.364;2023-03-11T07:26:38;4.30;;;2.53;;
71806;SDS011;59655;42.590;23.364;2023-03-11T07:29:04;2.65;;;1.60;;
71806;SDS011;59655;42.590;23.364;2023-03-11T07:31:31;8.88;;;6.85;;
71806;SDS011;59655;42.590;23.364;2023-03-11T07:33:58;2.90;;;1.80;;
71806;SDS011;59655;42.590;23.364;2023-03-11T07:38:56;4.25;;;3.33;;
71806;SDS011;59655;42.590;23.364;2023-03-11T07:41:28;2.45;;;0.80;;
71806;SDS011;59655;42.590;23.364;2023-03-11T07:43:56;1.45;;;0.90;;
71806;SDS011;59655;42.590;23.364;2023-03-11T07:46:23;1.30;;;0.68;;
71806;SDS011;59655;42.590;23.364;2023-03-11T07:48:49;2.00;;;0.93;;
71806;SDS011;59655;42.590;23.364;2023-03-11T07:51:23;3.05;;;0.80;;
71806;SDS011;59655;42.590;23.364;2023-03-11T07:53:54;1.45;;;0.70;;
71806;SDS011;59655;42.590;23.364;2023-03-11T07:56:23;2.00;;;0.80;;
71806;SDS011;59655;42.590;23.364;2023-03-11T07:58:54;1.23;;;0.90;;
71806;SDS011;59655;42.590;23.364;2023-03-11T08:01:20;2.63;;;0.90;;
71806;SDS011;59655;42.590;23.364;2023-03-11T08:03:48;2.58;;;1.00;;
71806;SDS011;59655;42.590;23.364;2023-03-11T08:06:16;2.38;;;1.00;;
71806;SDS011;59655;42.590;23.364;2023-03-11T08:08:43;5.05;;;2.55;;
71806;SDS011;59655;42.590;23.364;2023-03-11T08:11:10;3.55;;;1.00;;
71806;SDS011;59655;42.590;23.364;2023-03-11T08:13:37;2.88;;;0.90;;
71806;SDS011;59655;42.590;23.364;2023-03-11T08:16:03;2.17;;;0.95;;
71806;SDS011;59655;42.590;23.364;2023-03-11T08:18:30;3.42;;;1.00;;
71806;SDS011;59655;42.590;23.364;2023-03-11T08:20:56;2.70;;;1.20;;
71806;SDS011;59655;42.590;23.364;2023-03-11T08:23:22;1.45;;;0.93;;
71806;SDS011;59655;42.590;23.364;2023-03-11T08:25:47;2.63;;;0.90;;
71806;SDS011;59655;42.590;23.364;2023-03-11T08:28:13;2.05;;;0.98;;
71806;SDS011;59655;42.590;23.364;2023-03-11T08:30:38;6.85;;;2.03;;
71806;SDS011;59655;42.590;23.364;2023-03-11T08:33:04;11.00;;;4.40;;
71806;SDS011;59655;42.590;23.364;2023-03-11T08:35:30;4.68;;;1.80;;
71806;SDS011;59655;42.590;23.364;2023-03-11T08:37:56;5.45;;;1.45;;
71806;SDS011;59655;42.590;23.364;2023-03-11T08:40:21;5.03;;;1.73;;
71806;SDS011;59655;42.590;23.364;2023-03-11T08:42:47;3.17;;;1.27;;
71806;SDS011;59655;42.590;23.364;2023-03-11T08:45:12;4.30;;;1.42;;
71806;SDS011;59655;42.590;23.364;2023-03-11T08:47:38;8.20;;;1.50;;
71806;SDS011;59655;42.590;23.364;2023-03-11T08:50:05;2.08;;;1.40;;
71806;SDS011;59655;42.590;23.364;2023-03-11T08:52:33;8.73;;;2.10;;
71806;SDS011;59655;42.590;23.364;2023-03-11T08:54:59;3.05;;;1.30;;
71806;SDS011;59655;42.590;23.364;2023-03-11T08:57:24;5.05;;;1.35;;
71806;SDS011;59655;42.590;23.364;2023-03-11T08:59:50;2.05;;;1.02;;
71806;SDS011;59655;42.590;23.364;2023-03-11T09:02:15;4.50;;;1.10;;
71806;SDS011;59655;42.590;23.364;2023-03-11T09:04:40;3.30;;;1.10;;
71806;SDS011;59655;42.590;23.364;2023-03-11T09:07:06;11.68;;;10.75;;
71806;SDS011;59655;42.590;23.364;2023-03-11T09:09:35;10.00;;;6.55;;
71806;SDS011;59655;42.590;23.364;2023-03-11T09:12:00;5.70;;;1.33;;
71806;SDS011;59655;42.590;23.364;2023-03-11T09:14:26;2.70;;;0.82;;
71806;SDS011;59655;42.590;23.364;2023-03-11T09:16:51;2.72;;;0.93;;
71806;SDS011;59655;42.590;23.364;2023-03-11T09:19:16;5.25;;;1.30;;
71806;SDS011;59655;42.590;23.364;2023-03-11T09:21:42;4.10;;;1.10;;
71806;SDS011;59655;42.590;23.364;2023-03-11T09:24:07;2.10;;;0.90;;
71806;SDS011;59655;42.590;23.364;2023-03-11T09:26:33;3.95;;;1.38;;
71806;SDS011;59655;42.590;23.364;2023-03-11T09:28:59;3.92;;;1.00;;
71806;SDS011;59655;42.590;23.364;2023-03-11T09:31:25;2.95;;;0.93;;
71806;SDS011;59655;42.590;23.364;2023-03-11T09:33:50;2.28;;;0.93;;
71806;SDS011;59655;42.590;23.364;2023-03-11T09:36:20;3.15;;;0.90;;
71806;SDS011;59655;42.590;23.364;2023-03-11T09:38:46;2.92;;;0.88;;
71806;SDS011;59655;42.590;23.364;2023-03-11T09:51:54;5.47;;;1.25;;
71806;SDS011;59655;42.590;23.364;2023-03-11T09:54:25;3.13;;;1.10;;
71806;SDS011;59655;42.590;23.364;2023-03-11T09:56:56;4.70;;;1.15;;
71806;SDS011;59655;42.590;23.364;2023-03-11T09:59:28;3.05;;;1.10;;
71806;SDS011;59655;42.590;23.364;2023-03-11T10:01:55;3.55;;;1.00;;
71806;SDS011;59655;42.590;23.364;2023-03-11T10:04:36;3.28;;;1.10;;
71806;SDS011;59655;42.590;23.364;2023-03-11T10:07:09;2.90;;;1.00;;
71806;SDS011;59655;42.590;23.364;2023-03-11T10:12:26;3.58;;;1.45;;
71806;SDS011;59655;42.590;23.364;2023-03-11T10:17:45;2.58;;;1.15;;
71806;SDS011;59655;42.590;23.364;2023-03-11T10:23:49;3.85;;;1.33;;
71806;SDS011;59655;42.590;23.364;2023-03-11T10:26:31;2.33;;;1.13;;
71806;SDS011;59655;42.590;23.364;2023-03-11T10:31:50;3.25;;;1.25;;
71806;SDS011;59655;42.590;23.364;2023-03-11T10:34:29;3.60;;;1.67;;
71806;SDS011;59655;42.590;23.364;2023-03-11T10:39:45;15.38;;;3.00;;
71806;SDS011;59655;42.590;23.364;2023-03-11T10:42:19;7.72;;;2.58;;
71806;SDS011;59655;42.590;23.364;2023-03-11T10:44:48;6.00;;;1.30;;
71806;SDS011;59655;42.590;23.364;2023-03-11T10:49:46;3.85;;;1.48;;
71806;SDS011;59655;42.590;23.364;2023-03-11T10:52:12;4.95;;;1.30;;
71806;SDS011;59655;42.590;23.364;2023-03-11T10:54:39;8.98;;;1.20;;
71806;SDS011;59655;42.590;23.364;2023-03-11T10:57:23;2.88;;;1.23;;
71806;SDS011;59655;42.590;23.364;2023-03-11T10:59:54;4.47;;;1.30;;
71806;SDS011;59655;42.590;23.364;2023-03-11T11:05:01;1.92;;;1.08;;
71806;SDS011;59655;42.590;23.364;2023-03-11T11:07:28;3.70;;;1.17;;
71806;SDS011;59655;42.590;23.364;2023-03-11T11:17:52;6.85;;;1.20;;
71806;SDS011;59655;42.590;23.364;2023-03-11T11:20:20;3.30;;;1.08;;
71806;SDS011;59655;42.590;23.364;2023-03-11T11:22:50;7.63;;;1.45;;
71806;SDS011;59655;42.590;23.364;2023-03-11T11:25:27;3.15;;;0.90;;
71806;SDS011;59655;42.590;23.364;2023-03-11T11:28:03;3.75;;;1.10;;
71806;SDS011;59655;42.590;23.364;2023-03-11T11:30:38;6.53;;;1.40;;
71806;SDS011;59655;42.590;23.364;2023-03-11T11:33:21;2.63;;;1.40;;
71806;SDS011;59655;42.590;23.364;2023-03-11T11:35:50;5.25;;;1.55;;
71806;SDS011;59655;42.590;23.364;2023-03-11T11:38:18;2.72;;;1.15;;
71806;SDS011;59655;42.590;23.364;2023-03-11T11:40:48;4.70;;;1.30;;
71806;SDS011;59655;42.590;23.364;2023-03-11T11:43:18;5.40;;;1.92;;
71806;SDS011;59655;42.590;23.364;2023-03-11T11:45:47;3.10;;;1.10;;
71806;SDS011;59655;42.590;23.364;2023-03-11T11:51:36;4.43;;;1.20;;
71806;SDS011;59655;42.590;23.364;2023-03-11T11:56:48;2.42;;;1.15;;
71806;SDS011;59655;42.590;23.364;2023-03-11T11:59:17;3.63;;;1.30;;
71806;SDS011;59655;42.590;23.364;2023-03-11T12:01:52;6.90;;;1.38;;
71806;SDS011;59655;42.590;23.364;2023-03-11T12:17:46;6.57;;;1.58;;
71806;SDS011;59655;42.590;23.364;2023-03-11T12:20:19;5.15;;;1.30;;
71806;SDS011;59655;42.590;23.364;2023-03-11T12:31:16;4.50;;;1.60;;
71806;SDS011;59655;42.590;23.364;2023-03-11T12:37:11;3.30;;;1.27;;
71806;SDS011;59655;42.590;23.364;2023-03-11T12:42:15;16.92;;;8.43;;
71806;SDS011;59655;42.590;23.364;2023-03-11T12:44:40;3.50;;;2.13;;
71806;SDS011;59655;42.590;23.364;2023-03-11T12:49:41;2.10;;;1.20;;
71806;SDS011;59655;42.590;23.364;2023-03-11T12:54:37;7.22;;;2.92;;
71806;SDS011;59655;42.590;23.364;2023-03-11T13:08:07;4.07;;;1.60;;
71806;SDS011;59655;42.590;23.364;2023-03-11T13:10:40;6.82;;;2.45;;
71806;SDS011;59655;42.590;23.364;2023-03-11T13:15:49;8.63;;;3.92;;
71806;SDS011;59655;42.590;23.364;2023-03-11T13:18:17;5.07;;;1.80;;
71806;SDS011;59655;42.590;23.364;2023-03-11T13:20:56;4.93;;;1.60;;
71806;SDS011;59655;42.590;23.364;2023-03-11T13:23:33;2.88;;;0.90;;
71806;SDS011;59655;42.590;23.364;2023-03-11T13:31:48;4.25;;;1.08;;
71806;SDS011;59655;42.590;23.364;2023-03-11T13:34:33;3.75;;;1.30;;
71806;SDS011;59655;42.590;23.364;2023-03-11T13:40:38;4.88;;;1.10;;
71806;SDS011;59655;42.590;23.364;2023-03-11T13:43:21;1.98;;;1.02;;
71806;SDS011;59655;42.590;23.364;2023-03-11T13:46:02;3.55;;;1.40;;
71806;SDS011;59655;42.590;23.364;2023-03-11T13:48:37;5.28;;;1.38;;
71806;SDS011;59655;42.590;23.364;2023-03-11T13:56:17;2.00;;;1.00;;
71806;SDS011;59655;42.590;23.364;2023-03-11T13:58:52;4.10;;;0.90;;
71806;SDS011;59655;42.590;23.364;2023-03-11T14:01:19;4.13;;;0.90;;
71806;SDS011;59655;42.590;23.364;2023-03-11T14:03:46;3.35;;;0.80;;
71806;SDS011;59655;42.590;23.364;2023-03-11T14:06:17;2.53;;;1.00;;
71806;SDS011;59655;42.590;23.364;2023-03-11T14:08:54;2.80;;;0.90;;
71806;SDS011;59655;42.590;23.364;2023-03-11T14:11:28;3.95;;;0.80;;
71806;SDS011;59655;42.590;23.364;2023-03-11T14:13:59;4.00;;;1.20;;
71806;SDS011;59655;42.590;23.364;2023-03-11T14:16:32;2.50;;;1.10;;
71806;SDS011;59655;42.590;23.364;2023-03-11T14:21:43;4.45;;;1.50;;
71806;SDS011;59655;42.590;23.364;2023-03-11T14:24:29;4.97;;;2.60;;
71806;SDS011;59655;42.590;23.364;2023-03-11T14:26:58;4.80;;;2.30;;
71806;SDS011;59655;42.590;23.364;2023-03-11T14:29:30;6.07;;;2.67;;
71806;SDS011;59655;42.590;23.364;2023-03-11T14:32:14;10.80;;;5.47;;
71806;SDS011;59655;42.590;23.364;2023-03-11T14:34:55;15.65;;;8.48;;
71806;SDS011;59655;42.590;23.364;2023-03-11T14:37:33;32.00;;;17.55;;
71806;SDS011;59655;42.590;23.364;2023-03-11T14:40:00;30.42;;;14.80;;
71806;SDS011;59655;42.590;23.364;2023-03-11T14:42:30;28.23;;;13.50;;
71806;SDS011;59655;42.590;23.364;2023-03-11T14:45:09;36.45;;;18.25;;
71806;SDS011;59655;42.590;23.364;2023-03-11T14:51:14;25.77;;;15.90;;
71806;SDS011;59655;42.590;23.364;2023-03-11T14:56:44;28.17;;;17.10;;
71806;SDS011;59655;42.590;23.364;2023-03-11T14:59:17;20.33;;;13.50;;
71806;SDS011;59655;42.590;23.364;2023-03-11T15:01:53;24.08;;;16.42;;
71806;SDS011;59655;42.590;23.364;2023-03-11T15:04:29;11.70;;;7.40;;
71806;SDS011;59655;42.590;23.364;2023-03-11T15:06:58;20.70;;;10.55;;
71806;SDS011;59655;42.590;23.364;2023-03-11T15:09:28;13.60;;;7.05;;
71806;SDS011;59655;42.590;23.364;2023-03-11T15:11:55;9.63;;;5.45;;
71806;SDS011;59655;42.590;23.364;2023-03-11T15:14:34;7.30;;;3.60;;
71806;SDS011;59655;42.590;23.364;2023-03-11T15:17:23;13.38;;;5.68;;
71806;SDS011;59655;42.590;23.364;2023-03-11T15:19:55;6.90;;;3.58;;
71806;SDS011;59655;42.590;23.364;2023-03-11T15:24:59;10.30;;;5.18;;
71806;SDS011;59655;42.590;23.364;2023-03-11T15:27:36;15.13;;;7.82;;
71806;SDS011;59655;42.590;23.364;2023-03-11T15:30:14;6.00;;;3.30;;
71806;SDS011;59655;42.590;23.364;2023-03-11T15:32:44;4.50;;;2.47;;
71806;SDS011;59655;42.590;23.364;2023-03-11T15:35:17;4.82;;;2.60;;
71806;SDS011;59655;42.590;23.364;2023-03-11T15:38:37;4.85;;;2.53;;
71806;SDS011;59655;42.590;23.364;2023-03-11T15:40:53;5.38;;;2.40;;
71806;SDS011;59655;42.590;23.364;2023-03-11T15:43:45;5.55;;;2.00;;
71806;SDS011;59655;42.590;23.364;2023-03-11T15:46:12;7.72;;;3.90;;
71806;SDS011;59655;42.590;23.364;2023-03-11T15:48:38;11.75;;;7.55;;
71806;SDS011;59655;42.590;23.364;2023-03-11T15:51:03;12.23;;;7.72;;
71806;SDS011;59655;42.590;23.364;2023-03-11T15:53:29;5.43;;;2.63;;
71806;SDS011;59655;42.590;23.364;2023-03-11T15:55:57;3.85;;;1.80;;
71806;SDS011;59655;42.590;23.364;2023-03-11T15:58:26;3.42;;;2.00;;
71806;SDS011;59655;42.590;23.364;2023-03-11T16:00:54;5.18;;;2.08;;
71806;SDS011;59655;42.590;23.364;2023-03-11T16:03:20;5.07;;;1.70;;
71806;SDS011;59655;42.590;23.364;2023-03-11T16:05:47;4.40;;;2.20;;
71806;SDS011;59655;42.590;23.364;2023-03-11T16:08:13;5.90;;;2.38;;
71806;SDS011;59655;42.590;23.364;2023-03-11T16:10:38;6.80;;;2.58;;
71806;SDS011;59655;42.590;23.364;2023-03-11T16:13:05;8.63;;;3.78;;
71806;SDS011;59655;42.590;23.364;2023-03-11T16:15:34;7.20;;;3.08;;
71806;SDS011;59655;42.590;23.364;2023-03-11T16:18:03;6.13;;;3.10;;
71806;SDS011;59655;42.590;23.364;2023-03-11T16:20:31;5.32;;;3.42;;
71806;SDS011;59655;42.590;23.364;2023-03-11T16:23:01;6.65;;;4.15;;
71806;SDS011;59655;42.590;23.364;2023-03-11T16:25:45;7.53;;;3.95;;
71806;SDS011;59655;42.590;23.364;2023-03-11T16:28:14;6.20;;;5.05;;
71806;SDS011;59655;42.590;23.364;2023-03-11T16:30:41;7.05;;;4.63;;
71806;SDS011;59655;42.590;23.364;2023-03-11T16:33:07;6.30;;;4.88;;
71806;SDS011;59655;42.590;23.364;2023-03-11T16:35:33;7.47;;;5.10;;
71806;SDS011;59655;42.590;23.364;2023-03-11T16:37:58;6.80;;;5.28;;
71806;SDS011;59655;42.590;23.364;2023-03-11T16:40:24;5.88;;;4.85;;
71806;SDS011;59655;42.590;23.364;2023-03-11T16:43:10;6.93;;;4.80;;
71806;SDS011;59655;42.590;23.364;2023-03-11T16:45:38;5.65;;;3.92;;